createdAt,value
2022-10-14T00:01:25.206Z,0.30
2022-10-14T00:04:50.109Z,0.30
2022-10-14T00:08:14.116Z,0.25
2022-10-14T00:11:41.123Z,0.30
2022-10-14T00:15:05.132Z,0.40
2022-10-14T00:18:29.205Z,0.22
2022-10-14T00:21:55.129Z,0.32
2022-10-14T00:25:19.132Z,0.25
2022-10-14T00:28:43.147Z,0.40
2022-10-14T00:32:07.124Z,0.30
2022-10-14T00:35:32.107Z,0.30
2022-10-14T00:38:56.276Z,0.52
2022-10-14T00:42:25.181Z,0.55
2022-10-14T00:45:49.121Z,0.40
2022-10-14T00:49:15.112Z,0.30
2022-10-14T00:52:39.131Z,0.55
2022-10-14T00:56:04.116Z,0.40
2022-10-14T00:59:30.222Z,0.50
2022-10-14T01:02:56.129Z,1.60
2022-10-14T01:06:40.137Z,0.32
2022-10-14T01:10:30.139Z,0.70
2022-10-14T01:14:12.128Z,0.20
2022-10-14T01:17:43.280Z,0.50
2022-10-14T01:21:15.765Z,0.40
2022-10-14T01:25:04.181Z,0.60
2022-10-14T01:28:42.189Z,0.60
2022-10-14T01:32:31.214Z,0.47
2022-10-14T01:36:10.142Z,0.80
2022-10-14T01:39:41.185Z,0.75
2022-10-14T01:43:05.232Z,0.35
2022-10-14T01:46:29.190Z,0.43
2022-10-14T01:49:59.214Z,0.88
2022-10-14T01:53:27.184Z,0.55
2022-10-14T01:56:53.152Z,0.40
2022-10-14T02:00:19.187Z,0.20
2022-10-14T02:03:54.160Z,0.47
2022-10-14T02:07:42.174Z,0.40
2022-10-14T02:11:13.257Z,0.50
2022-10-14T02:15:02.187Z,0.60
2022-10-14T02:18:35.198Z,0.47
2022-10-14T02:22:10.729Z,0.40
2022-10-14T02:25:42.210Z,0.55
2022-10-14T02:29:07.211Z,0.40
2022-10-14T02:32:34.191Z,0.38
2022-10-14T02:36:04.159Z,0.60
2022-10-14T02:39:30.245Z,0.40
2022-10-14T02:42:55.195Z,1.13
2022-10-14T02:46:20.211Z,0.93
2022-10-14T02:49:44.243Z,1.10
2022-10-14T02:53:08.190Z,1.20
2022-10-14T02:56:35.157Z,0.60
2022-10-14T02:59:59.211Z,0.30
2022-10-14T03:03:25.228Z,0.40
2022-10-14T03:06:50.181Z,0.40
2022-10-14T03:10:15.223Z,0.50
2022-10-14T03:13:40.170Z,0.73
2022-10-14T03:17:04.226Z,0.60
2022-10-14T03:20:28.171Z,0.88
2022-10-14T03:23:53.224Z,0.73
2022-10-14T03:27:23.172Z,0.52
2022-10-14T03:30:52.272Z,0.60
2022-10-14T03:34:36.209Z,1.70
2022-10-14T03:38:10.191Z,0.90
2022-10-14T03:41:36.189Z,0.88
2022-10-14T03:45:02.195Z,0.35
2022-10-14T03:48:28.213Z,0.45
2022-10-14T03:51:52.189Z,0.40
2022-10-14T03:55:20.238Z,0.50
2022-10-14T03:58:46.191Z,0.40
2022-10-14T04:02:12.359Z,0.60
2022-10-14T04:05:42.217Z,0.80
2022-10-14T04:09:11.277Z,0.47
2022-10-14T04:12:36.216Z,0.60
2022-10-14T04:16:15.338Z,0.80
2022-10-14T04:19:59.228Z,1.00
2022-10-14T04:23:23.248Z,1.15
2022-10-14T04:26:46.797Z,1.95
2022-10-14T04:30:19.242Z,1.00
2022-10-14T04:33:45.231Z,1.60
2022-10-14T04:37:16.254Z,3.30
2022-10-14T04:41:18.312Z,1.38
2022-10-14T04:44:44.221Z,0.90
2022-10-14T04:48:16.262Z,0.70
2022-10-14T04:51:41.235Z,0.90
2022-10-14T04:55:37.244Z,0.80
2022-10-14T04:59:01.243Z,0.63
2022-10-14T05:02:47.401Z,0.70
2022-10-14T05:06:18.242Z,0.90
2022-10-14T05:09:48.280Z,0.93
2022-10-14T05:13:26.261Z,1.30
2022-10-14T05:16:55.239Z,0.95
2022-10-14T05:20:21.273Z,0.70
2022-10-14T05:23:48.264Z,0.93
2022-10-14T05:27:14.231Z,0.95
2022-10-14T05:30:39.236Z,0.90
2022-10-14T05:34:03.243Z,1.08
2022-10-14T05:37:27.258Z,1.08
2022-10-14T05:40:51.474Z,1.00
2022-10-14T05:44:15.268Z,1.10
2022-10-14T05:47:40.221Z,1.10
2022-10-14T05:51:10.276Z,0.70
2022-10-14T05:54:34.269Z,1.00
2022-10-14T05:57:59.229Z,1.25
2022-10-14T06:01:28.390Z,1.33
2022-10-14T06:04:53.261Z,1.38
2022-10-14T06:08:18.281Z,0.88
2022-10-14T06:11:42.262Z,1.38
2022-10-14T06:15:06.293Z,1.00
2022-10-14T06:18:30.269Z,1.00
2022-10-14T06:21:54.252Z,1.20
2022-10-14T06:25:17.323Z,1.10
2022-10-14T06:28:41.332Z,1.20
2022-10-14T06:32:05.291Z,1.42
2022-10-14T06:35:29.250Z,1.23
2022-10-14T06:38:53.279Z,0.73
2022-10-14T06:42:17.292Z,0.80
2022-10-14T06:45:41.253Z,0.70
2022-10-14T06:49:05.307Z,0.50
2022-10-14T06:52:29.345Z,0.50
2022-10-14T06:55:53.273Z,0.60
2022-10-14T06:59:09.325Z,0.60
2022-10-14T07:02:33.271Z,0.85
2022-10-14T07:05:56.323Z,0.60
2022-10-14T07:09:20.269Z,0.63
2022-10-14T07:12:45.290Z,0.75
2022-10-14T07:16:09.299Z,0.80
2022-10-14T07:19:33.328Z,0.70
2022-10-14T07:22:57.289Z,0.65
2022-10-14T07:26:22.449Z,0.70
2022-10-14T07:29:39.894Z,0.75
2022-10-14T07:32:57.334Z,0.80
2022-10-14T07:36:26.270Z,0.65
2022-10-14T07:39:50.319Z,0.65
2022-10-14T07:43:14.322Z,0.57
2022-10-14T07:46:41.304Z,0.60
2022-10-14T07:50:06.346Z,0.70
2022-10-14T07:53:30.280Z,0.60
2022-10-14T07:56:57.339Z,0.80
2022-10-14T08:00:21.294Z,0.65
2022-10-14T08:03:45.350Z,0.50
2022-10-14T08:07:09.327Z,0.73
2022-10-14T08:10:33.300Z,0.52
2022-10-14T08:13:57.344Z,0.60
2022-10-14T08:17:21.336Z,0.60
2022-10-14T08:20:45.353Z,0.55
2022-10-14T08:24:09.276Z,0.50
2022-10-14T08:27:34.339Z,0.70
2022-10-14T08:30:54.292Z,0.60
2022-10-14T08:34:11.323Z,0.70
2022-10-14T08:37:35.365Z,0.70
2022-10-14T08:41:10.414Z,0.60
2022-10-14T08:44:42.347Z,0.60
2022-10-14T08:48:09.362Z,0.85
2022-10-14T08:51:34.459Z,0.80
2022-10-14T08:55:04.369Z,0.77
2022-10-14T08:58:36.349Z,0.60
2022-10-14T09:02:16.342Z,0.70
2022-10-14T09:05:41.301Z,0.70
2022-10-14T09:09:06.309Z,0.70
2022-10-14T09:12:34.335Z,0.88
2022-10-14T09:16:11.343Z,1.10
2022-10-14T09:19:48.349Z,0.80
2022-10-14T09:23:16.379Z,1.05
2022-10-14T09:26:39.348Z,0.93
2022-10-14T09:30:12.372Z,0.90
2022-10-14T09:33:31.016Z,0.80
2022-10-14T09:36:48.393Z,0.90
2022-10-14T09:40:21.375Z,1.15
2022-10-14T09:43:45.460Z,1.23
2022-10-14T09:47:17.346Z,1.30
2022-10-14T09:50:51.354Z,1.10
2022-10-14T09:54:15.357Z,1.45
2022-10-14T09:57:39.366Z,1.35
2022-10-14T10:01:02.344Z,1.10
2022-10-14T10:04:48.370Z,1.35
2022-10-14T10:08:34.345Z,1.05
2022-10-14T10:11:58.400Z,0.98
2022-10-14T10:15:22.321Z,1.10
2022-10-14T10:18:46.364Z,0.80
2022-10-14T10:22:11.402Z,0.80
2022-10-14T10:25:36.395Z,0.70
2022-10-14T10:29:02.454Z,0.60
2022-10-14T10:32:50.375Z,0.75
2022-10-14T10:36:44.378Z,0.70
2022-10-14T10:40:23.362Z,0.75
2022-10-14T10:44:15.390Z,0.57
2022-10-14T10:47:54.351Z,0.55
2022-10-14T10:51:24.433Z,0.60
2022-10-14T10:55:09.407Z,0.60
2022-10-14T10:58:49.330Z,0.60
2022-10-14T11:02:52.398Z,0.60
2022-10-14T11:07:00.387Z,0.60
2022-10-14T11:11:09.393Z,0.65
2022-10-14T11:14:55.330Z,0.57
2022-10-14T11:18:34.414Z,0.65
2022-10-14T11:22:19.646Z,0.55
2022-10-14T11:25:48.381Z,0.70
2022-10-14T11:29:27.405Z,0.90
2022-10-14T11:33:02.397Z,0.77
2022-10-14T11:36:34.439Z,0.50
2022-10-14T11:39:58.987Z,0.70
2022-10-14T11:43:40.402Z,0.73
2022-10-14T11:47:09.342Z,0.60
2022-10-14T11:50:40.445Z,0.80
2022-10-14T11:54:28.349Z,0.70
2022-10-14T11:57:52.431Z,0.60
2022-10-14T12:01:25.404Z,0.70
2022-10-14T12:04:52.431Z,0.70
2022-10-14T12:08:48.395Z,0.90
2022-10-14T12:12:21.675Z,0.73
2022-10-14T12:15:46.455Z,0.70
2022-10-14T12:19:11.381Z,0.60
2022-10-14T12:22:40.405Z,0.80
2022-10-14T12:26:14.411Z,0.98
2022-10-14T12:29:42.405Z,0.93
2022-10-14T12:33:22.702Z,0.68
2022-10-14T12:36:47.429Z,0.80
2022-10-14T12:40:30.293Z,0.70
2022-10-14T12:43:52.175Z,0.80
2022-10-14T12:47:18.359Z,0.80
2022-10-14T12:50:54.392Z,0.88
2022-10-14T12:54:28.397Z,0.77
2022-10-14T12:57:52.432Z,0.60
2022-10-14T13:01:36.622Z,0.70
2022-10-14T13:05:05.460Z,0.60
2022-10-14T13:08:35.417Z,0.90
2022-10-14T13:12:00.440Z,0.80
2022-10-14T13:16:02.421Z,0.80
2022-10-14T13:19:51.430Z,0.70
2022-10-14T13:23:33.430Z,0.50
2022-10-14T13:27:10.482Z,0.50
2022-10-14T13:30:43.429Z,0.68
2022-10-14T13:34:15.459Z,0.50
2022-10-14T13:38:00.380Z,0.50
2022-10-14T13:41:35.471Z,0.30
2022-10-14T13:45:00.459Z,0.43
2022-10-14T13:48:32.469Z,0.50
2022-10-14T13:52:05.440Z,0.50
2022-10-14T13:55:36.471Z,0.32
2022-10-14T13:59:01.424Z,0.40
2022-10-14T14:02:38.473Z,0.40
2022-10-14T14:06:09.444Z,0.40
2022-10-14T14:09:40.466Z,0.50
2022-10-14T14:13:04.530Z,0.80
2022-10-14T14:16:39.546Z,1.08
2022-10-14T14:20:06.442Z,0.60
2022-10-14T14:23:34.415Z,0.43
2022-10-14T14:26:58.474Z,0.50
2022-10-14T14:30:36.437Z,0.40
2022-10-14T14:34:00.469Z,0.38
2022-10-14T14:37:53.328Z,0.40
2022-10-14T14:41:35.513Z,0.50
2022-10-14T14:44:53.019Z,0.50
2022-10-14T14:48:13.474Z,0.38
2022-10-14T14:51:38.477Z,0.45
2022-10-14T14:55:03.456Z,0.40
2022-10-14T14:58:57.499Z,0.30
2022-10-14T15:02:41.512Z,0.38
2022-10-14T15:06:11.500Z,0.60
2022-10-14T15:10:00.407Z,0.60
2022-10-14T15:13:55.449Z,0.80
2022-10-14T15:17:19.454Z,0.70
2022-10-14T15:20:46.471Z,1.35
2022-10-14T15:24:11.446Z,1.13
2022-10-14T15:27:50.473Z,0.60
2022-10-14T15:31:14.483Z,0.40
2022-10-14T15:34:39.491Z,0.30
2022-10-14T15:38:05.430Z,0.30
2022-10-14T15:41:31.558Z,0.30
2022-10-14T15:44:49.069Z,0.30
2022-10-14T15:48:11.464Z,0.30
2022-10-14T15:51:35.478Z,0.20
2022-10-14T15:54:59.518Z,0.60
2022-10-14T15:58:23.486Z,0.30
2022-10-14T16:01:49.545Z,0.30
2022-10-14T16:05:19.650Z,0.20
2022-10-14T16:08:44.493Z,0.20
2022-10-14T16:12:08.468Z,0.20
2022-10-14T16:15:36.499Z,0.20
2022-10-14T16:19:00.464Z,0.30
2022-10-14T16:22:24.482Z,0.20
2022-10-14T16:25:52.470Z,0.40
2022-10-14T16:29:17.484Z,0.20
2022-10-14T16:32:41.510Z,0.20
2022-10-14T16:36:10.486Z,0.20
2022-10-14T16:39:34.511Z,0.25
2022-10-14T16:42:59.499Z,0.15
2022-10-14T16:46:23.502Z,0.30
2022-10-14T16:49:47.535Z,0.20
2022-10-14T16:53:29.511Z,0.30
2022-10-14T16:57:00.519Z,0.20
2022-10-14T17:00:24.473Z,0.25
2022-10-14T17:03:48.540Z,0.20
2022-10-14T17:07:15.445Z,0.30
2022-10-14T17:10:39.513Z,0.25
2022-10-14T17:14:06.491Z,0.20
2022-10-14T17:17:32.556Z,0.30
2022-10-14T17:20:56.492Z,0.30
2022-10-14T17:24:20.539Z,0.20
2022-10-14T17:27:45.502Z,0.20
2022-10-14T17:31:09.553Z,0.30
2022-10-14T17:34:33.508Z,0.20
2022-10-14T17:37:57.539Z,0.30
2022-10-14T17:41:24.517Z,0.30
2022-10-14T17:44:48.536Z,0.40
2022-10-14T17:48:06.117Z,0.38
2022-10-14T17:51:23.543Z,0.10
2022-10-14T17:54:47.534Z,0.40
2022-10-14T17:58:13.559Z,0.60
2022-10-14T18:02:00.891Z,0.40
2022-10-14T18:05:21.625Z,0.30
2022-10-14T18:08:45.514Z,0.40
2022-10-14T18:12:10.202Z,0.52
2022-10-14T18:15:35.533Z,0.40
2022-10-14T18:18:59.537Z,0.77
2022-10-14T18:22:25.522Z,0.52
2022-10-14T18:25:50.512Z,0.77
2022-10-14T18:29:14.552Z,0.32
2022-10-14T18:32:38.474Z,0.30
2022-10-14T18:36:02.646Z,0.40
2022-10-14T18:39:30.482Z,0.50
2022-10-14T18:42:54.515Z,0.30
2022-10-14T18:46:29.589Z,0.38
2022-10-14T18:49:54.602Z,0.40
2022-10-14T18:53:19.487Z,0.30
2022-10-14T18:56:48.555Z,0.40
2022-10-14T19:00:14.388Z,0.45
2022-10-14T19:03:40.565Z,0.30
2022-10-14T19:07:04.559Z,0.38
2022-10-14T19:10:29.543Z,0.15
2022-10-14T19:13:54.585Z,0.30
2022-10-14T19:17:18.530Z,0.30
2022-10-14T19:20:43.592Z,0.40
2022-10-14T19:24:08.522Z,1.13
2022-10-14T19:27:32.573Z,0.70
2022-10-14T19:30:56.563Z,0.60
2022-10-14T19:34:22.909Z,0.22
2022-10-14T19:37:48.574Z,0.35
2022-10-14T19:41:16.550Z,0.40
2022-10-14T19:44:40.524Z,0.47
2022-10-14T19:47:58.186Z,0.30
2022-10-14T19:51:19.590Z,0.50
2022-10-14T19:54:43.554Z,0.40
2022-10-14T19:58:07.571Z,0.45
2022-10-14T20:01:33.682Z,0.50
2022-10-14T20:04:57.724Z,0.30
2022-10-14T20:08:21.554Z,0.30
2022-10-14T20:11:45.599Z,0.50
2022-10-14T20:15:09.547Z,0.40
2022-10-14T20:18:33.601Z,0.30
2022-10-14T20:21:58.547Z,0.38
2022-10-14T20:25:15.595Z,0.30
2022-10-14T20:28:39.627Z,0.30
2022-10-14T20:32:03.616Z,0.60
2022-10-14T20:38:55.598Z,0.70
2022-10-14T20:42:19.560Z,0.30
2022-10-14T20:45:43.597Z,0.50
2022-10-14T20:49:11.583Z,0.40
2022-10-14T20:52:35.565Z,0.45
2022-10-14T20:55:59.574Z,0.50
2022-10-14T20:59:27.580Z,0.38
2022-10-14T21:02:51.607Z,0.40
2022-10-14T21:06:21.572Z,0.47
2022-10-14T21:09:45.619Z,0.50
2022-10-14T21:13:10.569Z,0.50
2022-10-14T21:16:50.595Z,0.50
2022-10-14T21:20:14.542Z,0.50
2022-10-14T21:23:39.580Z,0.50
2022-10-14T21:27:04.585Z,0.60
2022-10-14T21:30:28.630Z,0.50
2022-10-14T21:33:52.583Z,0.65
2022-10-14T21:37:16.609Z,0.45
2022-10-14T21:40:41.580Z,0.50
2022-10-14T21:44:05.629Z,0.50
2022-10-14T21:47:29.636Z,0.45
2022-10-14T21:50:53.612Z,0.40
2022-10-14T21:54:22.733Z,0.40
2022-10-14T21:57:46.589Z,0.32
2022-10-14T22:01:22.631Z,0.40
2022-10-14T22:04:46.606Z,0.50
2022-10-14T22:08:10.630Z,0.50
2022-10-14T22:11:46.606Z,0.43
2022-10-14T22:15:10.649Z,0.60
2022-10-14T22:18:34.603Z,0.30
2022-10-14T22:21:59.643Z,0.80
2022-10-14T22:25:23.620Z,0.50
2022-10-14T22:28:46.680Z,1.00
2022-10-14T22:32:10.605Z,0.50
2022-10-14T22:35:36.583Z,0.70
2022-10-14T22:39:01.642Z,0.70
2022-10-14T22:42:26.649Z,1.20
2022-10-14T22:45:50.635Z,0.73
2022-10-14T22:49:13.638Z,0.45
2022-10-14T22:52:31.195Z,0.50
2022-10-14T22:55:48.647Z,0.38
2022-10-14T22:59:14.599Z,0.52
2022-10-14T23:02:38.721Z,0.40
2022-10-14T23:06:02.623Z,0.50
2022-10-14T23:09:25.683Z,0.57
2022-10-14T23:12:49.612Z,0.40
2022-10-14T23:16:15.635Z,0.40
2022-10-14T23:19:39.627Z,0.30
2022-10-14T23:23:03.646Z,0.93
2022-10-14T23:26:32.666Z,1.10
2022-10-14T23:29:56.652Z,0.70
2022-10-14T23:33:20.656Z,1.27
2022-10-14T23:36:44.769Z,0.70
2022-10-14T23:40:09.657Z,0.70
2022-10-14T23:43:33.668Z,0.60
2022-10-14T23:46:58.650Z,0.80
2022-10-14T23:50:22.664Z,0.60
2022-10-14T23:53:46.681Z,0.68
2022-10-14T23:57:10.676Z,0.70
